CSB6 weather

Montebello Seaplane Base
Montebello, Quebec, Canada

Public forecast

Using degrees Celsius for public forecast. Weather courtesy of forecast.io.

Closest aviation weather report (METAR) to Montebello Seaplane Base

Closest report is Ottawa / Gatineau Airport, 25.5 nm (47.3 km) WSW. Retrieved 2020/05/25 14:00 UTC (14 minutes ago):

CYND 251400Z 16003KT 10SM OVC012 17/16 A3006 RMK SC8 SLP179 DENSITY ALT 400FT

Closest aviation forecast (TAF) to Montebello Seaplane Base

Closest forecast is Ottawa / Gatineau Airport, 25.5 nm (47.3 km) WSW. Retrieved 2020/05/25 13:00 UTC (1 hour ago):

TAF CYND 251238Z 2513/2601 16005KT P6SM SCT015 OVC025 TEMPO 2513/2516 SCT008 OVC015 FM251600 22012KT P6SM SCT030 BKN050 TEMPO 2516/2518 OVC020 FM252100 21008KT P6SM SCT060 TEMPO 2521/2601 BKN060 RMK NXT FCST BY 251800Z